Aérodrome :
LOGIN :

S'inscrire | Disclaimer

   EN    FR    IT 

 










Légende :    VFR   VFR Marginal   IFR   IFR Intensif   IFR Très Intensif
Visi : 
Plafond : 
>= 8 km
>= 3000ft
5 à 8 km
1000 à 3000 ft
1500m à 5 km
500 à 1000 ft
800 à 1500m
200 à 500 ft
< 800m
< 200 ft
Symboles :   Orages  Brouillard  Fortes neiges  Fortes précipitations  Vent > 20 kt
SIGMETs :   Divers  Orages  Givrage  Turbulence  Onde Orograph.  Cendres Volcan.






- Altitude de l'aérodrome : 265 ft
- Code IATA : BJY


LYBT - Batajnica Air Base

DERNIER METAR :
  • 301030Z 27013KT 9999 SCT033 09/00 Q1018 NOSIG

METARs EXPIRÉS :
  • 301000Z 28013KT 250V320 9999 SCT033 09/00 Q1018 NOSIG
  • 300930Z 28012KT 250V320 9999 SCT033 08/01 Q1018 NOSIG
  • 300900Z 28013KT 9999 SCT040 08/01 Q1017 NOSIG
  • 300830Z 28014KT 250V320 9999 FEW040 09/01 Q1017 NOSIG
  • 300800Z 29016KT CAVOK 08/01 Q1017 NOSIG
  • 300730Z 28014KT CAVOK 07/01 Q1017 NOSIG

TAF TAF LYBT
Valide du 30 à 06h jusqu'au 31 à 06h UTC


300500Z 3006/3106 28009KT 9999 SCT033 TX13/3012Z TN01/3104Z
TEMPO 3008/3018 33020KT



MET'MAP, la Météo Aéronautique d'un coup d'oeil ! - Copyright ORBIFLY Décembre 2007 - Disclaimer

ORBIFLY MET'MAP TEAM :

Programmation & Développement : Alexandra Zaïnal
Sur une idée originale de : Baudouin d'Aumeries
Assistance à la programmation : Marc-Olivier Méhu
Soutien technique & logistique : Manuel Goepfert

Contact : metmap@orbifly.com




SOURCES & CREDITS :

   NOAA